Time;durP1;ratioP1;P1;durP2;ratioP2;P2;SDS_P1;SDS_P2;PMS_P1;PMS_P2;Temp;Humidity;BMP_temperature;BMP_pressure;BME280_temperature;BME280_humidity;BME280_pressure;Samples;Min_cycle;Max_cycle;Signal;HPM_P1;HPM_P2
2024/01/27 00:00:09;;;;;;;2.83;1.87;;;;;;;;;;4954494;28;20219;-78
2024/01/27 00:02:34;;;;;;;4.03;2.30;;;;;;;;;;4963093;28;20188;-79
2024/01/27 00:04:59;;;;;;;5.43;2.73;;;;;;;;;;4954777;28;20227;-79
2024/01/27 00:07:27;;;;;;;2.00;1.80;;;;;;;;;;4949309;28;20227;-76
2024/01/27 00:09:52;;;;;;;2.40;2.20;;;;;;;;;;4970457;28;20224;-76
2024/01/27 00:12:17;;;;;;;3.97;2.10;;;;;;;;;;4976887;28;20169;-78
2024/01/27 00:14:43;;;;;;;4.47;2.10;;;;;;;;;;4961649;28;20237;-79
2024/01/27 00:17:09;;;;;;;5.90;2.30;;;;;;;;;;4971617;28;20183;-79
2024/01/27 00:19:34;;;;;;;3.27;2.27;;;;;;;;;;4971276;28;20169;-78
2024/01/27 00:21:59;;;;;;;4.17;2.47;;;;;;;;;;4952954;28;20212;-79
2024/01/27 00:24:24;;;;;;;5.97;2.30;;;;;;;;;;4976926;28;20317;-79
2024/01/27 00:26:49;;;;;;;4.80;2.77;;;;;;;;;;4954562;28;20215;-78
2024/01/27 00:29:15;;;;;;;2.97;2.10;;;;;;;;;;4972836;28;20204;-79
2024/01/27 00:31:40;;;;;;;3.50;2.10;;;;;;;;;;4959855;28;20180;-79
2024/01/27 00:34:05;;;;;;;4.23;2.20;;;;;;;;;;4973497;28;20183;-79
2024/01/27 00:36:30;;;;;;;2.53;2.23;;;;;;;;;;4975134;28;20244;-79
2024/01/27 00:38:59;;;;;;;3.00;2.00;;;;;;;;;;4974522;28;20176;-79
2024/01/27 00:41:24;;;;;;;3.77;2.30;;;;;;;;;;4974082;28;20244;-79
2024/01/27 00:43:49;;;;;;;7.23;2.50;;;;;;;;;;4958087;28;20267;-79
2024/01/27 00:46:14;;;;;;;3.77;2.17;;;;;;;;;;4958136;28;20180;-79
2024/01/27 00:48:40;;;;;;;3.70;1.90;;;;;;;;;;4955611;28;20204;-79
2024/01/27 00:51:05;;;;;;;3.13;2.30;;;;;;;;;;4960267;28;20185;-79
2024/01/27 00:53:30;;;;;;;4.43;2.40;;;;;;;;;;4977598;28;20182;-79
2024/01/27 00:55:55;;;;;;;2.20;2.03;;;;;;;;;;4959000;28;20169;-78
2024/01/27 00:58:20;;;;;;;4.60;2.10;;;;;;;;;;4959185;28;20176;-79
2024/01/27 01:00:45;;;;;;;3.50;1.87;;;;;;;;;;4978994;28;20187;-79
2024/01/27 01:03:11;;;;;;;5.00;2.50;;;;;;;;;;4975179;28;20296;-79
2024/01/27 01:05:36;;;;;;;3.30;2.10;;;;;;;;;;4957146;28;20188;-79
2024/01/27 01:08:01;;;;;;;3.03;2.17;;;;;;;;;;4952679;28;20275;-79
2024/01/27 01:10:26;;;;;;;3.73;2.23;;;;;;;;;;4974185;28;20229;-78
2024/01/27 01:12:52;;;;;;;2.73;2.03;;;;;;;;;;4958516;28;21182;-79
2024/01/27 01:15:17;;;;;;;3.00;1.80;;;;;;;;;;4973192;28;20192;-79
2024/01/27 01:17:42;;;;;;;7.50;2.30;;;;;;;;;;4973129;28;20191;-78
2024/01/27 01:20:08;;;;;;;6.47;2.93;;;;;;;;;;4962195;28;20189;-79
2024/01/27 01:22:33;;;;;;;2.77;1.83;;;;;;;;;;4972663;28;20187;-76
2024/01/27 01:24:58;;;;;;;4.27;2.00;;;;;;;;;;4958956;28;20176;-79
2024/01/27 01:27:23;;;;;;;4.40;2.37;;;;;;;;;;4956397;28;20204;-79
2024/01/27 01:29:49;;;;;;;2.33;1.83;;;;;;;;;;4974117;28;20179;-79
2024/01/27 01:32:15;;;;;;;3.63;1.93;;;;;;;;;;4968965;28;20184;-79
2024/01/27 01:34:40;;;;;;;2.13;1.93;;;;;;;;;;4955659;28;20173;-79
2024/01/27 01:37:05;;;;;;;7.50;4.97;;;;;;;;;;4967811;28;20177;-78
2024/01/27 01:39:30;;;;;;;3.70;2.40;;;;;;;;;;4961101;28;20268;-79
2024/01/27 01:41:56;;;;;;;4.00;2.20;;;;;;;;;;4974437;28;20205;-79
2024/01/27 01:44:21;;;;;;;3.07;1.90;;;;;;;;;;4973732;28;20192;-78
2024/01/27 01:46:47;;;;;;;4.60;2.47;;;;;;;;;;4974583;28;20201;-79
2024/01/27 01:49:12;;;;;;;4.27;2.57;;;;;;;;;;4967612;28;20177;-78
2024/01/27 01:51:37;;;;;;;3.63;2.33;;;;;;;;;;4956442;28;20268;-78
2024/01/27 01:54:02;;;;;;;3.47;3.17;;;;;;;;;;4972851;28;20196;-79
2024/01/27 01:56:28;;;;;;;4.53;2.30;;;;;;;;;;4952134;28;20180;-78
2024/01/27 01:58:57;;;;;;;5.27;2.37;;;;;;;;;;4956781;28;20204;-77
2024/01/27 02:01:22;;;;;;;4.67;2.43;;;;;;;;;;4966982;28;20168;-77
2024/01/27 02:03:51;;;;;;;3.33;2.20;;;;;;;;;;4975319;28;20251;-78
2024/01/27 02:06:16;;;;;;;4.90;2.27;;;;;;;;;;4971087;28;20197;-78
2024/01/27 02:08:41;;;;;;;5.07;2.33;;;;;;;;;;4972725;28;20244;-78
2024/01/27 02:11:07;;;;;;;9.00;2.63;;;;;;;;;;4976785;28;20299;-78
2024/01/27 02:13:32;;;;;;;4.43;2.37;;;;;;;;;;4971094;28;20177;-78
2024/01/27 02:15:57;;;;;;;7.43;2.13;;;;;;;;;;4955904;28;20177;-78
2024/01/27 02:18:22;;;;;;;4.90;2.10;;;;;;;;;;4972803;28;20196;-78
2024/01/27 02:20:48;;;;;;;6.13;2.53;;;;;;;;;;4956293;28;20192;-78
2024/01/27 02:23:13;;;;;;;3.03;2.37;;;;;;;;;;4970912;28;20231;-78
2024/01/27 02:25:38;;;;;;;5.63;2.37;;;;;;;;;;4955647;28;20189;-78
2024/01/27 02:28:03;;;;;;;4.50;3.03;;;;;;;;;;4967764;28;20196;-78
2024/01/27 02:30:29;;;;;;;7.37;2.90;;;;;;;;;;4955203;28;20176;-77
2024/01/27 02:32:55;;;;;;;4.77;2.23;;;;;;;;;;4967124;28;20252;-78
2024/01/27 02:35:21;;;;;;;10.00;2.60;;;;;;;;;;4973419;28;20665;-78
2024/01/27 02:37:46;;;;;;;7.87;2.70;;;;;;;;;;4954294;28;20192;-76
2024/01/27 02:40:11;;;;;;;4.47;2.50;;;;;;;;;;4972283;28;20235;-77
2024/01/27 02:42:36;;;;;;;7.27;2.87;;;;;;;;;;4954761;28;20181;-77
2024/01/27 02:45:02;;;;;;;6.10;2.40;;;;;;;;;;4972565;28;20180;-77
2024/01/27 02:47:27;;;;;;;7.33;2.60;;;;;;;;;;4971735;28;20228;-76
2024/01/27 02:49:53;;;;;;;2.50;2.23;;;;;;;;;;4956576;28;20168;-77
2024/01/27 02:52:18;;;;;;;4.43;2.77;;;;;;;;;;4970407;28;20181;-77
2024/01/27 02:54:43;;;;;;;2.20;1.90;;;;;;;;;;4975789;28;20185;-77
2024/01/27 02:57:09;;;;;;;2.63;2.30;;;;;;;;;;4967135;28;20176;-76
2024/01/27 02:59:34;;;;;;;2.90;2.37;;;;;;;;;;4971507;28;20169;-77
2024/01/27 03:01:59;;;;;;;3.77;2.10;;;;;;;;;;4960627;28;20184;-76
2024/01/27 03:04:24;;;;;;;2.77;1.90;;;;;;;;;;4972135;28;20172;-75
2024/01/27 03:06:50;;;;;;;7.63;3.23;;;;;;;;;;4971347;28;20209;-76
2024/01/27 03:09:15;;;;;;;5.40;2.77;;;;;;;;;;4954045;28;20388;-76
2024/01/27 03:11:40;;;;;;;6.23;2.23;;;;;;;;;;4971540;28;20215;-76
2024/01/27 03:14:05;;;;;;;3.53;2.13;;;;;;;;;;4972213;28;20172;-76
2024/01/27 03:16:30;;;;;;;1.70;1.60;;;;;;;;;;4972030;28;20180;-76
2024/01/27 03:18:56;;;;;;;7.10;2.70;;;;;;;;;;4949491;28;20200;-76
2024/01/27 03:21:21;;;;;;;3.80;2.57;;;;;;;;;;4967197;28;20177;-76
2024/01/27 03:23:46;;;;;;;4.70;2.80;;;;;;;;;;4955438;28;20177;-76
2024/01/27 03:26:11;;;;;;;7.43;4.67;;;;;;;;;;4958275;28;20272;-76
2024/01/27 03:28:38;;;;;;;9.73;3.17;;;;;;;;;;4953830;28;20279;-76
2024/01/27 03:31:03;;;;;;;5.87;2.60;;;;;;;;;;4952459;28;20181;-76
2024/01/27 03:33:30;;;;;;;4.73;3.33;;;;;;;;;;4965803;28;20184;-75
2024/01/27 03:35:55;;;;;;;3.73;2.60;;;;;;;;;;4955024;28;20185;-76
2024/01/27 03:38:21;;;;;;;5.30;2.73;;;;;;;;;;4954274;28;20184;-76
2024/01/27 03:40:46;;;;;;;3.30;2.50;;;;;;;;;;4973748;28;20204;-76
2024/01/27 03:43:11;;;;;;;6.07;2.97;;;;;;;;;;4954902;28;20227;-76
2024/01/27 03:45:36;;;;;;;6.53;2.77;;;;;;;;;;4956305;28;20545;-75
2024/01/27 03:48:01;;;;;;;3.90;2.40;;;;;;;;;;4954283;28;20208;-76
2024/01/27 03:50:26;;;;;;;8.83;2.40;;;;;;;;;;4972392;28;20603;-75
2024/01/27 03:52:52;;;;;;;3.60;2.50;;;;;;;;;;4971876;28;20168;-75
2024/01/27 03:55:17;;;;;;;6.73;2.80;;;;;;;;;;4954414;28;20223;-75
2024/01/27 03:57:42;;;;;;;5.63;2.20;;;;;;;;;;4955738;28;20243;-75
2024/01/27 04:00:08;;;;;;;3.80;2.43;;;;;;;;;;4952558;28;20185;-75
2024/01/27 04:02:33;;;;;;;5.10;3.10;;;;;;;;;;4969942;28;20181;-75
2024/01/27 04:04:59;;;;;;;3.73;2.50;;;;;;;;;;4954380;28;20180;-75
2024/01/27 04:07:24;;;;;;;5.97;2.33;;;;;;;;;;4953244;28;20201;-75
2024/01/27 04:09:49;;;;;;;8.07;2.60;;;;;;;;;;4966253;28;20216;-75
2024/01/27 04:12:14;;;;;;;3.53;2.43;;;;;;;;;;4956509;28;20192;-75
2024/01/27 04:14:39;;;;;;;4.33;2.70;;;;;;;;;;4957704;28;20183;-75
2024/01/27 04:17:05;;;;;;;2.40;2.13;;;;;;;;;;4952475;28;20397;-75
2024/01/27 04:19:30;;;;;;;8.53;3.00;;;;;;;;;;4971017;28;20189;-75
2024/01/27 04:21:55;;;;;;;4.00;2.60;;;;;;;;;;4970072;28;20188;-75
2024/01/27 04:24:20;;;;;;;5.10;2.97;;;;;;;;;;4954147;28;20199;-75
2024/01/27 04:26:46;;;;;;;6.27;3.70;;;;;;;;;;4953453;28;20187;-75
2024/01/27 04:29:14;;;;;;;5.93;3.43;;;;;;;;;;4971651;28;20176;-75
2024/01/27 04:31:40;;;;;;;7.87;2.50;;;;;;;;;;4953355;28;20184;-75
2024/01/27 04:34:06;;;;;;;4.80;2.50;;;;;;;;;;4948278;28;20181;-75
2024/01/27 04:36:31;;;;;;;10.00;4.53;;;;;;;;;;4967802;28;20259;-75
2024/01/27 04:38:56;;;;;;;9.83;3.40;;;;;;;;;;4966305;28;20223;-76
2024/01/27 04:41:21;;;;;;;3.30;2.80;;;;;;;;;;4956687;28;20227;-75
2024/01/27 04:43:47;;;;;;;7.53;3.80;;;;;;;;;;4953534;28;20181;-75
2024/01/27 04:46:12;;;;;;;5.93;2.80;;;;;;;;;;4954210;28;20446;-75
2024/01/27 04:48:37;;;;;;;8.77;2.57;;;;;;;;;;4952530;28;20200;-76
2024/01/27 04:51:02;;;;;;;3.90;2.63;;;;;;;;;;4972718;28;20231;-75
2024/01/27 04:53:27;;;;;;;4.87;2.60;;;;;;;;;;4968832;28;20232;-75
2024/01/27 04:55:53;;;;;;;4.87;2.60;;;;;;;;;;4969245;28;20181;-75
2024/01/27 04:58:18;;;;;;;7.60;3.30;;;;;;;;;;4956468;28;20271;-76
2024/01/27 05:00:43;;;;;;;7.73;3.83;;;;;;;;;;4972926;28;20269;-75
2024/01/27 05:03:13;;;;;;;9.90;4.33;;;;;;;;;;4972162;28;20211;-75
2024/01/27 05:05:40;;;;;;;11.77;4.80;;;;;;;;;;4952619;28;20181;-75
2024/01/27 05:08:06;;;;;;;6.70;3.83;;;;;;;;;;4945688;28;20204;-75
2024/01/27 05:10:31;;;;;;;3.70;2.60;;;;;;;;;;4951627;28;20279;-75
2024/01/27 05:12:56;;;;;;;4.43;3.00;;;;;;;;;;4958443;28;20177;-75
2024/01/27 05:15:21;;;;;;;10.53;3.10;;;;;;;;;;4956886;28;20281;-76
2024/01/27 05:17:46;;;;;;;6.17;2.93;;;;;;;;;;4959671;28;20173;-76
2024/01/27 05:20:12;;;;;;;9.00;3.20;;;;;;;;;;4974622;28;20181;-76
2024/01/27 05:22:37;;;;;;;8.73;3.47;;;;;;;;;;4971889;28;20185;-76
2024/01/27 05:25:03;;;;;;;5.13;3.07;;;;;;;;;;4974690;28;20231;-76
2024/01/27 05:27:28;;;;;;;9.63;3.20;;;;;;;;;;4953247;28;20209;-76
2024/01/27 05:29:53;;;;;;;4.80;2.77;;;;;;;;;;4956283;28;20188;-76
2024/01/27 05:32:18;;;;;;;4.87;3.07;;;;;;;;;;4974092;28;20180;-76
2024/01/27 05:34:44;;;;;;;7.93;4.00;;;;;;;;;;4981262;28;20180;-76
2024/01/27 05:37:09;;;;;;;5.30;3.13;;;;;;;;;;4958805;28;20188;-76
2024/01/27 05:39:34;;;;;;;8.97;3.63;;;;;;;;;;4958104;28;20189;-76
2024/01/27 05:41:59;;;;;;;7.50;4.13;;;;;;;;;;4974333;28;20212;-76
2024/01/27 05:44:25;;;;;;;11.73;5.40;;;;;;;;;;4974242;28;20176;-76
2024/01/27 05:46:50;;;;;;;19.60;7.43;;;;;;;;;;4974461;28;20177;-76
2024/01/27 05:49:15;;;;;;;10.43;4.93;;;;;;;;;;4972962;28;20184;-76
2024/01/27 05:51:40;;;;;;;10.27;4.67;;;;;;;;;;4972083;28;20184;-76
2024/01/27 05:54:06;;;;;;;9.27;3.93;;;;;;;;;;4973295;28;20180;-76
2024/01/27 05:56:31;;;;;;;6.83;3.30;;;;;;;;;;4972936;28;20236;-76
2024/01/27 05:58:56;;;;;;;8.13;4.00;;;;;;;;;;4975513;28;20223;-76
2024/01/27 06:01:21;;;;;;;7.97;4.03;;;;;;;;;;4972377;28;20181;-76
2024/01/27 06:03:47;;;;;;;5.30;3.43;;;;;;;;;;4971904;28;20180;-76
2024/01/27 06:06:12;;;;;;;5.57;3.43;;;;;;;;;;4957821;28;20211;-76
2024/01/27 06:08:37;;;;;;;6.33;3.80;;;;;;;;;;4971963;28;20203;-76
2024/01/27 06:11:05;;;;;;;4.60;3.23;;;;;;;;;;4959711;28;20279;-76
2024/01/27 06:13:32;;;;;;;9.30;3.40;;;;;;;;;;4972882;28;20188;-75
2024/01/27 06:15:57;;;;;;;10.47;5.43;;;;;;;;;;4959650;28;20468;-76
2024/01/27 06:18:24;;;;;;;10.17;5.03;;;;;;;;;;4958476;28;20198;-76
2024/01/27 06:20:49;;;;;;;5.13;3.67;;;;;;;;;;4967646;28;20192;-76
2024/01/27 06:23:14;;;;;;;6.30;3.30;;;;;;;;;;4978697;28;20177;-76
2024/01/27 06:25:40;;;;;;;5.47;3.00;;;;;;;;;;4950923;28;20178;-76
2024/01/27 06:28:05;;;;;;;4.97;3.63;;;;;;;;;;4968618;28;20209;-76
2024/01/27 06:30:30;;;;;;;10.60;4.00;;;;;;;;;;4972419;28;20183;-75
2024/01/27 06:32:55;;;;;;;8.47;3.63;;;;;;;;;;4956284;28;20168;-76
2024/01/27 06:35:21;;;;;;;8.63;4.30;;;;;;;;;;4955853;28;20195;-76
2024/01/27 06:37:46;;;;;;;7.63;3.43;;;;;;;;;;4949173;28;20271;-76
2024/01/27 06:40:12;;;;;;;9.33;3.73;;;;;;;;;;4955813;28;20185;-75
2024/01/27 06:42:37;;;;;;;5.77;3.10;;;;;;;;;;4955468;28;20189;-75
2024/01/27 06:45:02;;;;;;;6.23;3.50;;;;;;;;;;4955818;28;20197;-76
2024/01/27 06:47:27;;;;;;;10.73;3.50;;;;;;;;;;4955019;28;20193;-75
2024/01/27 06:49:53;;;;;;;5.27;3.30;;;;;;;;;;4958361;28;20176;-76
2024/01/27 06:52:18;;;;;;;5.33;3.93;;;;;;;;;;4961049;28;20200;-76
2024/01/27 06:54:43;;;;;;;6.37;3.87;;;;;;;;;;4963282;28;20184;-75
2024/01/27 06:57:17;;;;;;;8.07;4.70;;;;;;;;;;4957305;28;20192;-75
2024/01/27 06:59:42;;;;;;;15.43;9.27;;;;;;;;;;4957066;28;20180;-76
2024/01/27 07:02:13;;;;;;;7.43;4.10;;;;;;;;;;4958517;28;20185;-75
2024/01/27 07:04:38;;;;;;;6.37;3.50;;;;;;;;;;4959818;28;20272;-75
2024/01/27 07:07:04;;;;;;;8.80;3.47;;;;;;;;;;4971284;28;20269;-75
2024/01/27 07:09:29;;;;;;;4.50;2.97;;;;;;;;;;4951330;28;20271;-75
2024/01/27 07:11:54;;;;;;;5.07;3.03;;;;;;;;;;4966429;28;20176;-75
2024/01/27 07:14:19;;;;;;;25.20;11.03;;;;;;;;;;4967669;28;20223;-75
2024/01/27 07:16:45;;;;;;;19.40;11.80;;;;;;;;;;4971214;28;20176;-75
2024/01/27 07:19:11;;;;;;;13.23;8.30;;;;;;;;;;4970623;28;20212;-75
2024/01/27 07:21:36;;;;;;;16.50;7.37;;;;;;;;;;4967539;28;20184;-75
2024/01/27 07:24:02;;;;;;;4.70;2.70;;;;;;;;;;4952007;28;20197;-75
2024/01/27 07:26:28;;;;;;;9.77;3.97;;;;;;;;;;4965203;28;20172;-75
2024/01/27 07:28:53;;;;;;;6.60;4.23;;;;;;;;;;4974419;28;20209;-75
2024/01/27 07:31:19;;;;;;;14.97;10.57;;;;;;;;;;4960421;28;20173;-76
2024/01/27 07:33:44;;;;;;;14.87;9.13;;;;;;;;;;4962517;28;20177;-76
2024/01/27 07:36:11;;;;;;;8.70;4.57;;;;;;;;;;4944895;28;20177;-76
2024/01/27 07:38:36;;;;;;;9.60;4.60;;;;;;;;;;4959697;28;20225;-76
2024/01/27 07:41:02;;;;;;;8.37;4.13;;;;;;;;;;4953183;28;20204;-75
2024/01/27 07:43:27;;;;;;;7.30;5.03;;;;;;;;;;4970277;28;20834;-75
2024/01/27 07:45:53;;;;;;;9.80;7.37;;;;;;;;;;4951332;28;20215;-76
2024/01/27 07:48:18;;;;;;;14.80;5.73;;;;;;;;;;4968659;28;20230;-76
2024/01/27 07:50:48;;;;;;;8.60;4.47;;;;;;;;;;4970083;28;20320;-75
2024/01/27 07:53:13;;;;;;;8.00;3.33;;;;;;;;;;4968715;28;20216;-76
2024/01/27 07:55:39;;;;;;;9.43;4.87;;;;;;;;;;4952556;28;20181;-75
2024/01/27 07:58:04;;;;;;;10.27;4.30;;;;;;;;;;4966249;28;20172;-75
2024/01/27 08:00:31;;;;;;;12.67;6.60;;;;;;;;;;4951365;28;20176;-75
2024/01/27 08:02:56;;;;;;;15.50;5.90;;;;;;;;;;4965831;28;20190;-75
2024/01/27 08:05:24;;;;;;;10.00;4.57;;;;;;;;;;4953917;28;20303;-75
2024/01/27 08:07:49;;;;;;;7.93;4.13;;;;;;;;;;4943640;28;20205;-75
2024/01/27 08:10:15;;;;;;;9.23;4.93;;;;;;;;;;4955532;28;20228;-75
2024/01/27 08:12:40;;;;;;;6.80;3.60;;;;;;;;;;4954448;28;20212;-75
2024/01/27 08:15:06;;;;;;;9.60;4.37;;;;;;;;;;4961801;28;20181;-75
2024/01/27 08:17:31;;;;;;;7.13;3.07;;;;;;;;;;4954912;28;20184;-76
2024/01/27 08:19:56;;;;;;;13.50;4.27;;;;;;;;;;4967615;28;20212;-75
2024/01/27 08:22:21;;;;;;;6.87;4.43;;;;;;;;;;4954520;28;20196;-75
2024/01/27 08:24:47;;;;;;;11.40;6.43;;;;;;;;;;4970239;28;20180;-75
2024/01/27 08:27:12;;;;;;;16.53;7.63;;;;;;;;;;4971007;28;20239;-76
2024/01/27 08:29:37;;;;;;;6.77;3.50;;;;;;;;;;4969096;28;20169;-76
2024/01/27 08:32:02;;;;;;;5.80;4.00;;;;;;;;;;4956240;28;20176;-76
2024/01/27 08:34:28;;;;;;;8.07;4.23;;;;;;;;;;4958665;28;20181;-76
2024/01/27 08:36:53;;;;;;;8.97;4.37;;;;;;;;;;4970011;28;20205;-77
2024/01/27 08:39:18;;;;;;;9.67;2.93;;;;;;;;;;4967681;28;20465;-77
2024/01/27 08:41:43;;;;;;;7.37;3.77;;;;;;;;;;4953970;28;20181;-77
2024/01/27 08:44:09;;;;;;;11.53;4.60;;;;;;;;;;4970785;28;20177;-78
2024/01/27 08:46:34;;;;;;;7.47;4.13;;;;;;;;;;4971340;28;20201;-78
2024/01/27 08:48:59;;;;;;;7.73;4.27;;;;;;;;;;4956798;28;20188;-78
2024/01/27 08:51:24;;;;;;;5.17;3.57;;;;;;;;;;4958169;28;20176;-78
2024/01/27 08:53:49;;;;;;;8.47;4.13;;;;;;;;;;4973705;28;20176;-77
2024/01/27 08:56:16;;;;;;;3.93;3.40;;;;;;;;;;4974706;28;20259;-77
2024/01/27 08:58:41;;;;;;;5.60;3.77;;;;;;;;;;4959964;28;20175;-77
2024/01/27 09:01:08;;;;;;;6.60;3.43;;;;;;;;;;4960176;28;20200;-76
2024/01/27 09:03:34;;;;;;;9.53;3.23;;;;;;;;;;4956242;28;20221;-77
2024/01/27 09:05:59;;;;;;;6.53;3.77;;;;;;;;;;4968600;28;20204;-76
2024/01/27 09:08:24;;;;;;;6.47;3.90;;;;;;;;;;4949769;28;20204;-76
2024/01/27 09:10:50;;;;;;;10.50;3.67;;;;;;;;;;4961283;28;20208;-76
2024/01/27 09:13:15;;;;;;;7.20;3.30;;;;;;;;;;4970454;28;20191;-76
2024/01/27 09:15:40;;;;;;;8.17;3.83;;;;;;;;;;4973171;28;20181;-76
2024/01/27 09:18:06;;;;;;;11.23;3.60;;;;;;;;;;4975397;28;20204;-77
2024/01/27 09:20:32;;;;;;;5.47;3.60;;;;;;;;;;4957599;28;20267;-77
2024/01/27 09:22:57;;;;;;;9.47;3.37;;;;;;;;;;4981021;28;21647;-77
2024/01/27 09:25:24;;;;;;;4.97;3.03;;;;;;;;;;4956564;28;20288;-76
2024/01/27 09:27:49;;;;;;;8.83;3.83;;;;;;;;;;4973451;28;20201;-76
2024/01/27 09:30:15;;;;;;;5.13;3.30;;;;;;;;;;4960738;28;20212;-77
2024/01/27 09:32:40;;;;;;;9.77;4.97;;;;;;;;;;4956938;28;20176;-76
2024/01/27 09:35:05;;;;;;;5.77;3.50;;;;;;;;;;4973347;28;20223;-76
2024/01/27 09:37:31;;;;;;;6.77;3.23;;;;;;;;;;4957222;28;20272;-76
2024/01/27 09:39:57;;;;;;;9.83;3.60;;;;;;;;;;4953877;28;20186;-76
2024/01/27 09:42:22;;;;;;;16.50;8.43;;;;;;;;;;4974375;28;20195;-77
2024/01/27 09:44:49;;;;;;;15.17;9.63;;;;;;;;;;4957280;28;20181;-76
2024/01/27 09:47:14;;;;;;;13.50;4.40;;;;;;;;;;4959301;28;20196;-77
2024/01/27 09:49:41;;;;;;;5.87;4.00;;;;;;;;;;4974214;28;20267;-77
2024/01/27 09:52:06;;;;;;;11.37;4.17;;;;;;;;;;4957872;28;20177;-77
2024/01/27 09:54:31;;;;;;;7.13;3.47;;;;;;;;;;4972470;28;20343;-77
2024/01/27 09:56:57;;;;;;;7.07;4.07;;;;;;;;;;4967075;28;20181;-77
2024/01/27 09:59:22;;;;;;;7.47;3.23;;;;;;;;;;4973075;28;20185;-78
2024/01/27 10:01:48;;;;;;;4.67;3.43;;;;;;;;;;4973296;28;20181;-78
2024/01/27 10:04:13;;;;;;;4.93;3.03;;;;;;;;;;4976608;28;20263;-78
2024/01/27 10:06:40;;;;;;;5.03;3.23;;;;;;;;;;4955227;28;20180;-78
2024/01/27 10:09:05;;;;;;;6.10;2.67;;;;;;;;;;4971349;28;20248;-78
2024/01/27 10:11:50;;;;;;;2.77;2.37;;;;;;;;;;4969731;28;20176;-79
2024/01/27 10:14:16;;;;;;;2.00;1.50;;;;;;;;;;4956595;28;20184;-78
2024/01/27 10:16:42;;;;;;;2.07;1.83;;;;;;;;;;4972479;28;20264;-78
2024/01/27 10:19:11;;;;;;;4.90;1.90;;;;;;;;;;4968478;28;20188;-78
2024/01/27 10:21:37;;;;;;;3.00;1.70;;;;;;;;;;4973053;28;20224;-78
2024/01/27 10:24:05;;;;;;;5.27;1.63;;;;;;;;;;4954933;28;20193;-78
2024/01/27 10:26:32;;;;;;;6.73;3.00;;;;;;;;;;4955851;28;20189;-78
2024/01/27 10:28:57;;;;;;;3.63;2.23;;;;;;;;;;4972485;28;20228;-77
2024/01/27 10:31:29;;;;;;;1.50;1.30;;;;;;;;;;4954848;28;20269;-78
2024/01/27 10:33:56;;;;;;;3.10;1.53;;;;;;;;;;4971729;28;20180;-77
2024/01/27 10:36:21;;;;;;;5.03;2.03;;;;;;;;;;4955840;28;20189;-78
2024/01/27 10:38:47;;;;;;;2.30;2.10;;;;;;;;;;4955000;28;20199;-78
2024/01/27 10:41:17;;;;;;;3.53;2.37;;;;;;;;;;4953861;28;20200;-78
2024/01/27 10:43:42;;;;;;;4.67;2.70;;;;;;;;;;4970662;28;20188;-79
2024/01/27 10:46:08;;;;;;;3.43;3.03;;;;;;;;;;4955928;28;20185;-79
2024/01/27 10:48:36;;;;;;;5.50;3.00;;;;;;;;;;4957190;28;20204;-79
2024/01/27 10:51:12;;;;;;;4.23;3.40;;;;;;;;;;4958545;28;20184;-79
2024/01/27 10:53:39;;;;;;;5.57;3.97;;;;;;;;;;4952790;28;20199;-80
2024/01/27 10:56:08;;;;;;;9.13;3.97;;;;;;;;;;4954198;28;20267;-80
2024/01/27 10:58:40;;;;;;;9.63;4.53;;;;;;;;;;4962601;28;20192;-80
2024/01/27 11:01:07;;;;;;;6.20;4.30;;;;;;;;;;4955163;28;20180;-79
2024/01/27 11:03:33;;;;;;;7.20;4.10;;;;;;;;;;4954555;28;20184;-79
2024/01/27 11:05:58;;;;;;;6.70;4.23;;;;;;;;;;4970103;28;20185;-79
2024/01/27 11:08:27;;;;;;;5.37;3.80;;;;;;;;;;4954202;28;20212;-81
2024/01/27 11:10:53;;;;;;;8.63;4.67;;;;;;;;;;4953595;28;20232;-74
2024/01/27 11:13:18;;;;;;;7.77;4.20;;;;;;;;;;4961559;28;20189;-80
2024/01/27 11:15:56;;;;;;;7.70;4.57;;;;;;;;;;4955322;28;20243;-80
2024/01/27 11:18:22;;;;;;;10.17;4.97;;;;;;;;;;4949655;28;20191;-80
2024/01/27 11:20:47;;;;;;;7.20;4.80;;;;;;;;;;4952438;28;20181;-80
2024/01/27 11:23:14;;;;;;;12.00;4.83;;;;;;;;;;4947253;28;20197;-78
2024/01/27 11:25:39;;;;;;;8.27;6.00;;;;;;;;;;4954850;28;20188;-80
2024/01/27 11:28:12;;;;;;;14.07;6.13;;;;;;;;;;4968780;28;20200;-77
2024/01/27 11:30:39;;;;;;;11.47;5.40;;;;;;;;;;4971772;28;20169;-80
2024/01/27 11:33:05;;;;;;;8.23;4.23;;;;;;;;;;4955279;28;20177;-80
2024/01/27 11:35:30;;;;;;;13.23;5.10;;;;;;;;;;4973201;28;20186;-79
2024/01/27 11:37:55;;;;;;;9.40;4.67;;;;;;;;;;4953981;28;20216;-80
2024/01/27 11:40:21;;;;;;;7.03;3.97;;;;;;;;;;4954337;28;20255;-80
2024/01/27 11:42:56;;;;;;;5.97;3.37;;;;;;;;;;4973498;28;20173;-80
2024/01/27 11:45:22;;;;;;;10.80;4.37;;;;;;;;;;4953431;28;20240;-80
2024/01/27 11:47:47;;;;;;;4.50;3.13;;;;;;;;;;4954299;28;20431;-80
2024/01/27 11:50:13;;;;;;;4.80;3.30;;;;;;;;;;4972578;28;20181;-80
2024/01/27 11:52:38;;;;;;;6.00;4.23;;;;;;;;;;4972531;28;20181;-81
2024/01/27 11:55:03;;;;;;;4.37;3.43;;;;;;;;;;4955316;28;20194;-81
2024/01/27 11:57:29;;;;;;;8.77;4.97;;;;;;;;;;4955608;28;20258;-79
2024/01/27 11:59:55;;;;;;;5.77;4.57;;;;;;;;;;4972558;28;20216;-81
2024/01/27 12:02:20;;;;;;;5.57;3.70;;;;;;;;;;4972015;28;20200;-82
2024/01/27 12:04:46;;;;;;;3.33;3.03;;;;;;;;;;4976266;28;20180;-81
2024/01/27 12:07:11;;;;;;;4.43;3.33;;;;;;;;;;4968606;28;20187;-81
2024/01/27 12:09:37;;;;;;;7.67;3.87;;;;;;;;;;4947937;28;20221;-81
2024/01/27 12:12:03;;;;;;;5.63;3.10;;;;;;;;;;4934399;28;20181;-78
2024/01/27 12:14:41;;;;;;;4.67;2.87;;;;;;;;;;4940069;28;20229;-81
2024/01/27 12:17:08;;;;;;;6.10;2.43;;;;;;;;;;4950805;28;20177;-81
2024/01/27 12:19:33;;;;;;;5.17;3.77;;;;;;;;;;4951648;28;20195;-78
2024/01/27 12:21:58;;;;;;;11.23;3.47;;;;;;;;;;4951848;28;20169;-80
2024/01/27 12:24:24;;;;;;;5.87;3.37;;;;;;;;;;4941261;29;20205;-80
2024/01/27 12:26:49;;;;;;;7.23;2.57;;;;;;;;;;4937404;28;20176;-81
2024/01/27 12:29:14;;;;;;;4.40;3.10;;;;;;;;;;4953842;28;20267;-80
2024/01/27 12:31:40;;;;;;;5.53;3.27;;;;;;;;;;4944222;28;20189;-79
2024/01/27 12:34:05;;;;;;;20.97;13.87;;;;;;;;;;4938822;28;20295;-80
2024/01/27 12:36:30;;;;;;;6.57;2.93;;;;;;;;;;4941905;29;20269;-80
2024/01/27 12:38:59;;;;;;;6.37;2.97;;;;;;;;;;4950591;28;20194;-79
2024/01/27 12:41:26;;;;;;;4.10;2.83;;;;;;;;;;4941140;29;20243;-79
2024/01/27 12:43:51;;;;;;;3.27;2.60;;;;;;;;;;4955855;28;20224;-79
2024/01/27 12:46:16;;;;;;;4.80;2.83;;;;;;;;;;4938845;29;20178;-76
2024/01/27 12:48:42;;;;;;;7.60;2.87;;;;;;;;;;4937786;29;20201;-79
2024/01/27 12:51:07;;;;;;;7.10;3.60;;;;;;;;;;4958433;28;20240;-79
2024/01/27 12:53:32;;;;;;;3.63;2.60;;;;;;;;;;4940994;29;20188;-79
2024/01/27 12:55:58;;;;;;;5.37;2.70;;;;;;;;;;4936904;28;20171;-79
2024/01/27 12:58:23;;;;;;;2.23;2.03;;;;;;;;;;4939284;28;20232;-80
2024/01/27 13:00:48;;;;;;;5.17;3.03;;;;;;;;;;4939315;28;20209;-79
2024/01/27 13:03:14;;;;;;;6.33;5.70;;;;;;;;;;4940966;29;20185;-79
2024/01/27 13:05:39;;;;;;;4.33;2.83;;;;;;;;;;4955569;28;20178;-79
2024/01/27 13:08:04;;;;;;;4.53;3.27;;;;;;;;;;4935110;28;20649;-78
2024/01/27 13:10:30;;;;;;;4.33;2.70;;;;;;;;;;4952190;28;20225;-79
2024/01/27 13:12:55;;;;;;;4.43;2.73;;;;;;;;;;4969572;28;20187;-79
2024/01/27 13:15:21;;;;;;;5.57;2.43;;;;;;;;;;4974654;28;20172;-78
2024/01/27 13:17:47;;;;;;;4.27;2.10;;;;;;;;;;4956950;28;20183;-79
2024/01/27 13:20:12;;;;;;;2.50;2.10;;;;;;;;;;4958692;28;20188;-79
2024/01/27 13:22:38;;;;;;;4.30;2.23;;;;;;;;;;4954578;28;20580;-79
2024/01/27 13:25:05;;;;;;;3.30;2.33;;;;;;;;;;4955389;28;20181;-79
2024/01/27 13:27:30;;;;;;;3.67;1.57;;;;;;;;;;4956313;28;20205;-78
2024/01/27 13:29:56;;;;;;;3.27;1.63;;;;;;;;;;4972687;28;20186;-79
2024/01/27 13:32:21;;;;;;;5.73;2.20;;;;;;;;;;4972635;28;20233;-79
2024/01/27 13:34:47;;;;;;;4.10;2.20;;;;;;;;;;4956676;28;20178;-76
2024/01/27 13:37:12;;;;;;;3.83;2.40;;;;;;;;;;4972769;28;20192;-80
2024/01/27 13:39:37;;;;;;;3.33;2.30;;;;;;;;;;4967792;28;20183;-79
2024/01/27 13:42:03;;;;;;;3.27;1.80;;;;;;;;;;4960991;28;20210;-79
2024/01/27 13:44:29;;;;;;;2.90;1.80;;;;;;;;;;4968745;28;20187;-80
2024/01/27 13:47:00;;;;;;;4.57;2.40;;;;;;;;;;4970794;28;20213;-77
2024/01/27 13:49:25;;;;;;;3.23;2.07;;;;;;;;;;4952655;28;20194;-80
2024/01/27 13:51:50;;;;;;;5.60;2.27;;;;;;;;;;4970123;28;20262;-80
2024/01/27 13:54:16;;;;;;;3.90;2.20;;;;;;;;;;4972256;28;20180;-80
2024/01/27 13:56:41;;;;;;;3.07;2.03;;;;;;;;;;4971412;28;20177;-80
2024/01/27 13:59:07;;;;;;;5.67;2.83;;;;;;;;;;4958311;28;20194;-80
2024/01/27 14:01:33;;;;;;;6.13;2.83;;;;;;;;;;4956638;28;20643;-79
2024/01/27 14:03:58;;;;;;;2.60;1.90;;;;;;;;;;4957962;28;20259;-80
2024/01/27 14:06:24;;;;;;;3.10;1.80;;;;;;;;;;4960048;28;20313;-80
2024/01/27 14:08:50;;;;;;;4.40;2.33;;;;;;;;;;4953761;28;20211;-80
2024/01/27 14:11:21;;;;;;;6.17;2.13;;;;;;;;;;4959254;28;21138;-79
2024/01/27 14:13:47;;;;;;;2.37;2.17;;;;;;;;;;4970758;28;20268;-74
2024/01/27 14:16:12;;;;;;;4.13;2.80;;;;;;;;;;4960694;28;20250;-74
2024/01/27 14:18:37;;;;;;;3.67;2.20;;;;;;;;;;4954414;28;20180;-75
2024/01/27 14:21:03;;;;;;;3.97;2.10;;;;;;;;;;4954736;28;20191;-74
2024/01/27 14:23:28;;;;;;;8.73;2.70;;;;;;;;;;4955085;28;20189;-74
2024/01/27 14:25:53;;;;;;;4.03;2.30;;;;;;;;;;4950367;28;20287;-74
2024/01/27 14:28:19;;;;;;;3.63;3.00;;;;;;;;;;4952505;28;20262;-75
2024/01/27 14:30:44;;;;;;;6.33;2.20;;;;;;;;;;4974546;28;20243;-74